createdAt,value
2023-03-07T00:00:26.635Z,10.19
2023-03-07T00:02:54.494Z,10.23
2023-03-07T00:05:22.309Z,10.27
2023-03-07T00:07:50.054Z,10.27
2023-03-07T00:10:18.154Z,10.26
2023-03-07T00:12:45.994Z,10.26
2023-03-07T00:15:13.968Z,10.25
2023-03-07T00:17:42.191Z,10.27
2023-03-07T00:20:14.151Z,10.26
2023-03-07T00:22:44.105Z,10.30
2023-03-07T00:25:11.808Z,10.28
2023-03-07T00:27:40.118Z,10.26
2023-03-07T00:30:10.033Z,10.24
2023-03-07T00:32:38.554Z,10.22
2023-03-07T00:35:07.053Z,10.19
2023-03-07T00:37:34.912Z,10.19
2023-03-07T00:40:02.687Z,10.24
2023-03-07T00:42:30.432Z,10.20
2023-03-07T00:44:58.133Z,10.21
2023-03-07T00:47:25.848Z,10.17
2023-03-07T00:49:54.243Z,10.14
2023-03-07T00:52:22.168Z,10.18
2023-03-07T00:54:50.151Z,10.21
2023-03-07T00:57:18.056Z,10.20
2023-03-07T00:59:46.884Z,10.19
2023-03-07T01:02:15.149Z,10.22
2023-03-07T01:04:42.934Z,10.19
2023-03-07T01:07:10.790Z,10.21
2023-03-07T01:09:39.162Z,10.18
2023-03-07T01:12:07.683Z,10.22
2023-03-07T01:14:35.714Z,10.20
2023-03-07T01:17:04.039Z,10.18
2023-03-07T01:19:32.068Z,10.16
2023-03-07T01:22:01.026Z,10.11
2023-03-07T01:24:28.909Z,10.09
2023-03-07T01:26:57.187Z,10.06
2023-03-07T01:29:25.104Z,10.02
2023-03-07T01:31:53.615Z,9.98
2023-03-07T01:34:21.986Z,9.97
2023-03-07T01:36:51.854Z,9.98
2023-03-07T01:39:19.744Z,9.96
2023-03-07T01:41:52.216Z,10.01
2023-03-07T01:44:26.086Z,9.98
2023-03-07T01:47:00.473Z,9.96
2023-03-07T01:49:46.137Z,10.00
2023-03-07T01:52:32.551Z,10.05
2023-03-07T01:55:11.760Z,10.09
2023-03-07T01:57:44.696Z,10.09
2023-03-07T02:00:25.860Z,9.95
2023-03-07T02:03:10.561Z,9.96
2023-03-07T02:05:59.640Z,9.95
2023-03-07T02:08:30.510Z,9.92
2023-03-07T02:10:58.448Z,9.83
2023-03-07T02:13:26.329Z,9.76
2023-03-07T02:15:55.215Z,9.79
2023-03-07T02:18:28.480Z,9.76
2023-03-07T02:21:09.324Z,9.74
2023-03-07T02:23:49.089Z,9.67
2023-03-07T02:26:22.945Z,9.61
2023-03-07T02:28:51.784Z,9.57
2023-03-07T02:31:19.743Z,9.55
2023-03-07T02:33:47.585Z,9.53
2023-03-07T02:36:22.190Z,9.59
2023-03-07T02:39:06.819Z,9.59
2023-03-07T02:41:36.908Z,9.63
2023-03-07T02:44:11.774Z,9.68
2023-03-07T02:46:39.792Z,9.68
2023-03-07T02:49:07.710Z,9.65
2023-03-07T02:51:35.606Z,9.68
2023-03-07T02:54:03.521Z,9.66
2023-03-07T02:56:31.242Z,9.70
2023-03-07T02:58:59.015Z,9.71
2023-03-07T03:01:27.207Z,9.70
2023-03-07T03:03:56.077Z,9.70
2023-03-07T03:06:24.331Z,9.70
2023-03-07T03:08:52.610Z,9.64
2023-03-07T03:11:20.715Z,9.65
2023-03-07T03:13:49.062Z,9.65
2023-03-07T03:16:17.320Z,9.63
2023-03-07T03:18:45.113Z,9.61
2023-03-07T03:21:14.424Z,9.61
2023-03-07T03:23:42.222Z,9.62
2023-03-07T03:26:11.780Z,9.60
2023-03-07T03:28:40.371Z,9.64
2023-03-07T03:31:14.897Z,9.67
2023-03-07T03:33:44.597Z,9.70
2023-03-07T03:36:16.909Z,9.72
2023-03-07T03:38:47.217Z,9.72
2023-03-07T03:41:16.052Z,9.72
2023-03-07T03:43:45.460Z,9.78
2023-03-07T03:46:13.457Z,9.77
2023-03-07T03:48:41.371Z,9.79
2023-03-07T03:51:14.623Z,9.82
2023-03-07T03:53:42.909Z,9.80
2023-03-07T03:56:30.444Z,9.78
2023-03-07T03:59:16.341Z,9.77
2023-03-07T04:01:44.355Z,9.79
2023-03-07T04:04:12.602Z,9.80
2023-03-07T04:06:40.843Z,9.82
2023-03-07T04:09:10.139Z,9.82
2023-03-07T04:11:41.698Z,9.82
2023-03-07T04:14:09.566Z,9.85
2023-03-07T04:16:37.602Z,9.87
2023-03-07T04:19:05.682Z,9.85
2023-03-07T04:21:33.592Z,9.90
2023-03-07T04:24:01.842Z,9.91
2023-03-07T04:26:32.021Z,9.93
2023-03-07T04:28:59.960Z,9.96
2023-03-07T04:31:33.559Z,9.98
2023-03-07T04:34:03.880Z,9.99
2023-03-07T04:36:32.603Z,9.99
2023-03-07T04:39:00.524Z,10.01
2023-03-07T04:41:29.225Z,10.00
2023-03-07T04:44:17.066Z,9.98
2023-03-07T04:46:44.917Z,9.96
2023-03-07T04:49:13.228Z,10.00
2023-03-07T04:51:43.979Z,9.99
2023-03-07T04:54:12.726Z,10.00
2023-03-07T04:56:41.117Z,10.02
2023-03-07T04:59:10.977Z,10.05
2023-03-07T05:01:39.251Z,10.07
2023-03-07T05:04:07.397Z,10.06
2023-03-07T05:06:35.644Z,10.06
2023-03-07T05:09:04.803Z,10.03
2023-03-07T05:11:32.761Z,10.02
2023-03-07T05:14:00.877Z,10.01
2023-03-07T05:16:28.712Z,10.00
2023-03-07T05:18:56.538Z,10.00
2023-03-07T05:21:24.319Z,10.02
2023-03-07T05:23:52.059Z,9.98
2023-03-07T05:26:19.950Z,9.95
2023-03-07T05:28:49.427Z,9.91
2023-03-07T05:31:18.570Z,9.86
2023-03-07T05:33:47.321Z,9.87
2023-03-07T05:36:16.263Z,9.86
2023-03-07T05:38:44.395Z,9.81
2023-03-07T05:41:12.971Z,9.86
2023-03-07T05:43:41.205Z,9.88
2023-03-07T05:46:09.285Z,9.91
2023-03-07T05:48:37.355Z,9.91
2023-03-07T05:51:05.985Z,9.92
2023-03-07T05:53:33.998Z,9.90
2023-03-07T05:56:02.437Z,9.91
2023-03-07T05:58:31.253Z,9.91
2023-03-07T06:01:03.714Z,9.94
2023-03-07T06:03:32.721Z,9.94
2023-03-07T06:06:00.626Z,9.98
2023-03-07T06:08:28.486Z,10.02
2023-03-07T06:10:56.570Z,10.04
2023-03-07T06:13:26.410Z,10.07
2023-03-07T06:15:55.621Z,10.07
2023-03-07T06:18:25.765Z,10.07
2023-03-07T06:21:02.307Z,10.09
2023-03-07T06:23:36.175Z,10.05
2023-03-07T06:26:08.513Z,10.06
2023-03-07T06:28:36.976Z,10.05
2023-03-07T06:31:10.737Z,10.10
2023-03-07T06:33:39.522Z,10.12
2023-03-07T06:36:10.081Z,10.13
2023-03-07T06:38:41.335Z,10.13
2023-03-07T06:41:09.339Z,10.13
2023-03-07T06:43:37.684Z,10.09
2023-03-07T06:46:06.523Z,10.07
2023-03-07T06:48:38.039Z,10.07
2023-03-07T06:51:09.835Z,10.07
2023-03-07T06:53:41.267Z,10.05
2023-03-07T06:56:09.558Z,10.12
2023-03-07T06:58:38.939Z,10.14
2023-03-07T07:01:14.899Z,10.18
2023-03-07T07:03:42.929Z,10.15
2023-03-07T07:06:12.336Z,10.16
2023-03-07T07:08:40.399Z,10.15
2023-03-07T07:11:13.463Z,10.18
2023-03-07T07:13:41.598Z,10.20
2023-03-07T07:16:12.746Z,10.21
2023-03-07T07:18:42.521Z,10.23
2023-03-07T07:21:11.986Z,10.28
2023-03-07T07:23:40.064Z,10.29
2023-03-07T07:26:09.195Z,10.39
2023-03-07T07:28:37.607Z,10.43
2023-03-07T07:31:07.388Z,10.50
2023-03-07T07:33:36.166Z,10.53
2023-03-07T07:36:08.921Z,10.57
2023-03-07T07:38:37.400Z,10.59
2023-03-07T07:41:07.099Z,10.58
2023-03-07T07:43:35.447Z,10.63
2023-03-07T07:46:15.903Z,10.64
2023-03-07T07:48:48.081Z,10.66
2023-03-07T07:51:17.199Z,10.66
2023-03-07T07:53:45.244Z,10.70
2023-03-07T07:56:13.573Z,10.76
2023-03-07T07:58:41.685Z,10.79
2023-03-07T08:01:29.994Z,10.86
2023-03-07T08:03:59.313Z,10.85
2023-03-07T08:06:28.419Z,10.88
2023-03-07T08:08:59.953Z,10.87
2023-03-07T08:11:29.506Z,10.92
2023-03-07T08:13:58.692Z,10.96
2023-03-07T08:16:27.949Z,11.05
2023-03-07T08:18:59.583Z,11.07
2023-03-07T08:21:28.045Z,11.16
2023-03-07T08:23:56.592Z,11.22
2023-03-07T08:26:25.483Z,11.22
2023-03-07T08:28:53.724Z,11.26
2023-03-07T08:31:26.615Z,11.29
2023-03-07T08:33:56.547Z,11.32
2023-03-07T08:36:24.561Z,11.40
2023-03-07T08:38:52.847Z,11.40
2023-03-07T08:41:22.983Z,11.46
2023-03-07T08:43:51.510Z,11.42
2023-03-07T08:46:19.796Z,11.45
2023-03-07T08:48:49.485Z,11.47
2023-03-07T08:51:20.733Z,11.53
2023-03-07T08:53:50.638Z,11.65
2023-03-07T08:56:20.611Z,11.68
2023-03-07T08:58:48.505Z,11.72
2023-03-07T09:01:22.985Z,11.75
2023-03-07T09:03:51.207Z,11.71
2023-03-07T09:06:21.421Z,11.78
2023-03-07T09:08:50.442Z,11.76
2023-03-07T09:11:18.990Z,11.80
2023-03-07T09:13:52.323Z,11.75
2023-03-07T09:16:22.332Z,11.71
2023-03-07T09:18:51.092Z,11.69
2023-03-07T09:21:18.965Z,11.67
2023-03-07T09:23:46.917Z,11.67
2023-03-07T09:26:16.595Z,11.71
2023-03-07T09:28:44.684Z,11.70
2023-03-07T09:31:15.008Z,11.77
2023-03-07T09:33:46.527Z,11.78
2023-03-07T09:36:15.448Z,11.72
2023-03-07T09:38:48.035Z,11.73
2023-03-07T09:41:33.749Z,11.81
2023-03-07T09:44:34.010Z,11.83
2023-03-07T09:47:43.223Z,11.82
2023-03-07T09:50:29.445Z,11.88
2023-03-07T09:53:04.451Z,11.94
2023-03-07T09:55:58.344Z,11.95
2023-03-07T09:58:28.408Z,12.00
2023-03-07T10:01:24.090Z,12.12
2023-03-07T10:04:06.350Z,12.20
2023-03-07T10:06:42.970Z,12.22
2023-03-07T10:09:24.716Z,12.21
2023-03-07T10:12:30.092Z,12.04
2023-03-07T10:15:45.894Z,12.20
2023-03-07T10:18:45.155Z,12.27
2023-03-07T10:21:27.990Z,12.33
2023-03-07T10:24:20.346Z,12.37
2023-03-07T10:26:53.812Z,12.43
2023-03-07T10:29:28.795Z,12.45
2023-03-07T10:32:23.312Z,12.49
2023-03-07T10:35:02.958Z,12.52
2023-03-07T10:37:56.896Z,12.50
2023-03-07T10:40:41.570Z,12.53
2023-03-07T10:43:23.635Z,12.61
2023-03-07T10:46:02.258Z,12.64
2023-03-07T10:48:31.623Z,12.66
2023-03-07T10:51:41.889Z,12.72
2023-03-07T10:54:17.086Z,12.69
2023-03-07T10:57:10.949Z,12.70
2023-03-07T10:59:43.678Z,12.68
2023-03-07T11:02:38.562Z,12.75
2023-03-07T11:05:31.336Z,12.78
2023-03-07T11:08:01.362Z,12.73
2023-03-07T11:10:40.164Z,12.75
2023-03-07T11:13:17.797Z,12.74
2023-03-07T11:15:46.840Z,12.78
2023-03-07T11:18:39.089Z,12.80
2023-03-07T11:21:25.825Z,12.81
2023-03-07T11:24:18.423Z,12.81
2023-03-07T11:26:46.244Z,12.76
2023-03-07T11:29:14.969Z,12.80
2023-03-07T11:32:05.923Z,12.84
2023-03-07T11:34:59.691Z,12.82
2023-03-07T11:37:43.619Z,12.83
2023-03-07T11:40:20.341Z,12.84
2023-03-07T11:43:04.582Z,12.81
2023-03-07T11:46:35.999Z,12.70
2023-03-07T11:49:55.240Z,12.70
2023-03-07T11:52:26.179Z,12.73
2023-03-07T11:55:23.128Z,12.77
2023-03-07T11:58:38.576Z,12.71
2023-03-07T12:01:46.529Z,12.67
2023-03-07T12:04:50.032Z,12.68
2023-03-07T12:07:53.686Z,12.76
2023-03-07T12:10:47.059Z,12.65
2023-03-07T12:13:44.898Z,12.76
2023-03-07T12:16:34.469Z,12.86
2023-03-07T12:19:38.576Z,12.87
2023-03-07T12:22:29.749Z,12.98
2023-03-07T12:25:21.893Z,13.09
2023-03-07T12:28:17.998Z,13.17
2023-03-07T12:31:12.797Z,13.24
2023-03-07T12:34:34.437Z,13.26
2023-03-07T12:37:18.241Z,13.14
2023-03-07T12:40:01.073Z,13.22
2023-03-07T12:42:44.768Z,13.31
2023-03-07T12:45:27.254Z,13.37
2023-03-07T12:48:07.601Z,13.33
2023-03-07T12:50:52.728Z,13.47
2023-03-07T12:53:56.522Z,13.47
2023-03-07T12:56:53.682Z,13.55
2023-03-07T12:59:22.724Z,13.56
2023-03-07T13:02:29.730Z,13.60
2023-03-07T13:05:04.443Z,13.54
2023-03-07T13:07:35.334Z,13.60
2023-03-07T13:10:14.456Z,13.57
2023-03-07T13:12:42.640Z,13.59
2023-03-07T13:15:19.482Z,13.67
2023-03-07T13:17:48.026Z,13.67
2023-03-07T13:20:28.181Z,13.76
2023-03-07T13:23:10.971Z,13.74
2023-03-07T13:25:48.523Z,13.80
2023-03-07T13:28:33.924Z,13.80
2023-03-07T13:31:17.152Z,13.77
2023-03-07T13:33:45.476Z,13.77
2023-03-07T13:36:40.612Z,13.80
2023-03-07T13:39:38.366Z,13.67
2023-03-07T13:42:50.355Z,13.86
2023-03-07T13:45:40.704Z,13.93
2023-03-07T13:48:15.835Z,13.91
2023-03-07T13:51:08.200Z,14.03
2023-03-07T13:53:54.405Z,14.02
2023-03-07T13:56:32.239Z,13.98
2023-03-07T13:59:23.508Z,13.89
2023-03-07T14:02:07.538Z,13.77
2023-03-07T14:04:46.286Z,13.73
2023-03-07T14:07:33.360Z,13.75
2023-03-07T14:10:24.838Z,13.55
2023-03-07T14:14:11.179Z,13.62
2023-03-07T14:17:08.728Z,13.31
2023-03-07T14:23:56.469Z,13.31
2023-03-07T14:26:40.186Z,13.29
2023-03-07T14:29:30.901Z,13.32
2023-03-07T14:32:01.279Z,13.26
2023-03-07T14:34:35.336Z,13.23
2023-03-07T14:37:12.687Z,13.16
2023-03-07T14:39:58.391Z,13.21
2023-03-07T14:43:02.290Z,13.23
2023-03-07T14:45:57.344Z,13.16
2023-03-07T14:48:54.173Z,13.06
2023-03-07T14:51:29.917Z,13.05
2023-03-07T14:54:02.005Z,12.88
2023-03-07T14:56:35.227Z,12.97
2023-03-07T14:59:05.574Z,12.89
2023-03-07T15:01:39.953Z,12.67
2023-03-07T15:04:39.029Z,12.72
2023-03-07T15:07:21.203Z,12.84
2023-03-07T15:09:50.059Z,12.88
2023-03-07T15:12:28.459Z,12.94
2023-03-07T15:15:02.356Z,13.00
2023-03-07T15:17:45.949Z,13.02
2023-03-07T15:20:22.564Z,13.08
2023-03-07T15:22:55.008Z,13.09
2023-03-07T15:25:26.519Z,13.15
2023-03-07T15:28:04.565Z,13.26
2023-03-07T15:30:38.515Z,13.30
2023-03-07T15:33:32.648Z,13.33
2023-03-07T15:36:20.186Z,13.30
2023-03-07T15:38:51.710Z,13.28
2023-03-07T15:41:37.614Z,13.37
2023-03-07T15:44:11.942Z,13.39
2023-03-07T15:46:48.869Z,13.40
2023-03-07T15:49:26.216Z,13.37
2023-03-07T15:52:00.270Z,13.38
2023-03-07T15:54:41.771Z,13.35
2023-03-07T15:57:38.723Z,13.01
2023-03-07T16:00:39.216Z,13.23
2023-03-07T16:03:30.726Z,13.18
2023-03-07T16:06:47.453Z,13.30
2023-03-07T16:09:38.752Z,13.29
2023-03-07T16:12:22.047Z,13.18
2023-03-07T16:15:16.632Z,13.23
2023-03-07T16:18:08.257Z,13.14
2023-03-07T16:20:38.964Z,13.06
2023-03-07T16:23:13.166Z,13.08
2023-03-07T16:25:43.146Z,13.13
2023-03-07T16:28:15.346Z,13.13
2023-03-07T16:30:47.419Z,13.07
2023-03-07T16:33:17.065Z,13.09
2023-03-07T16:35:48.052Z,12.89
2023-03-07T16:38:16.381Z,12.95
2023-03-07T16:40:50.428Z,12.90
2023-03-07T16:43:34.741Z,12.86
2023-03-07T16:46:10.925Z,12.87
2023-03-07T16:48:39.243Z,12.89
2023-03-07T16:51:25.751Z,12.95
2023-03-07T16:53:57.092Z,12.91
2023-03-07T16:56:32.882Z,12.96
2023-03-07T16:59:03.054Z,12.94
2023-03-07T17:01:32.573Z,12.82
2023-03-07T17:04:03.368Z,12.90
2023-03-07T17:06:39.099Z,12.89
2023-03-07T17:09:14.328Z,12.88
2023-03-07T17:11:51.805Z,12.87
2023-03-07T17:14:21.559Z,12.84
2023-03-07T17:16:54.127Z,12.83
2023-03-07T17:19:29.600Z,12.86
2023-03-07T17:22:00.578Z,12.82
2023-03-07T17:24:31.486Z,12.80
2023-03-07T17:27:03.939Z,12.78
2023-03-07T17:29:46.795Z,12.72
2023-03-07T17:32:15.634Z,12.69
2023-03-07T17:34:45.656Z,12.56
2023-03-07T17:37:13.894Z,12.51
2023-03-07T17:39:42.837Z,12.61
2023-03-07T17:42:11.931Z,12.56
2023-03-07T17:44:40.236Z,12.62
2023-03-07T17:47:08.810Z,12.57
2023-03-07T17:49:39.433Z,12.57
2023-03-07T17:52:08.634Z,12.45
2023-03-07T17:54:40.269Z,12.53
2023-03-07T17:57:08.875Z,12.53
2023-03-07T17:59:37.510Z,12.53
2023-03-07T18:02:08.817Z,12.52
2023-03-07T18:04:40.049Z,12.39
2023-03-07T18:07:11.896Z,12.51
2023-03-07T18:09:40.990Z,12.43
2023-03-07T18:12:10.668Z,12.38
2023-03-07T18:14:39.897Z,12.34
2023-03-07T18:17:09.089Z,12.25
2023-03-07T18:19:39.684Z,12.17
2023-03-07T18:22:08.408Z,12.13
2023-03-07T18:24:37.550Z,12.09
2023-03-07T18:27:09.035Z,12.07
2023-03-07T18:29:37.428Z,12.06
2023-03-07T18:32:06.702Z,12.04
2023-03-07T18:34:35.208Z,12.03
2023-03-07T18:37:05.503Z,12.06
2023-03-07T18:39:35.803Z,12.04
2023-03-07T18:42:10.129Z,11.94
2023-03-07T18:44:49.807Z,11.92
2023-03-07T18:47:20.542Z,11.88
2023-03-07T18:49:52.243Z,11.85
2023-03-07T18:52:21.664Z,11.79
2023-03-07T18:54:50.736Z,11.82
2023-03-07T18:57:20.565Z,11.76
2023-03-07T18:59:51.155Z,11.63
2023-03-07T19:02:19.369Z,11.66
2023-03-07T19:04:47.483Z,11.66
2023-03-07T19:07:15.676Z,11.61
2023-03-07T19:09:47.545Z,11.60
2023-03-07T19:12:21.520Z,11.59
2023-03-07T19:14:51.975Z,11.56
2023-03-07T19:17:20.196Z,11.61
2023-03-07T19:19:53.803Z,11.60
2023-03-07T19:22:27.060Z,11.56
2023-03-07T19:24:56.102Z,11.61
2023-03-07T19:27:32.582Z,11.61
2023-03-07T19:30:01.043Z,11.58
2023-03-07T19:32:31.121Z,11.59
2023-03-07T19:35:01.241Z,11.43
2023-03-07T19:37:30.581Z,11.51
2023-03-07T19:39:59.990Z,11.46
2023-03-07T19:42:31.306Z,11.42
2023-03-07T19:45:00.365Z,11.42
2023-03-07T19:47:30.647Z,11.39
2023-03-07T19:50:00.826Z,11.44
2023-03-07T19:52:32.502Z,11.37
2023-03-07T19:55:02.603Z,11.41
2023-03-07T19:57:31.405Z,11.33
2023-03-07T20:00:02.705Z,11.44
2023-03-07T20:02:40.168Z,11.49
2023-03-07T20:05:11.470Z,11.59
2023-03-07T20:07:40.101Z,11.62
2023-03-07T20:10:12.412Z,11.58
2023-03-07T20:12:43.409Z,11.59
2023-03-07T20:15:14.879Z,11.57
2023-03-07T20:17:43.545Z,11.44
2023-03-07T20:20:12.906Z,11.47
2023-03-07T20:22:43.047Z,11.49
2023-03-07T20:25:13.935Z,11.44
2023-03-07T20:27:43.646Z,11.39
2023-03-07T20:30:12.607Z,11.50
2023-03-07T20:32:43.099Z,11.53
2023-03-07T20:35:12.666Z,11.49
2023-03-07T20:37:44.853Z,11.51
2023-03-07T20:40:19.832Z,11.42
2023-03-07T20:42:54.840Z,11.50
2023-03-07T20:45:29.896Z,11.34
2023-03-07T20:48:18.864Z,11.37
2023-03-07T20:50:47.841Z,11.47
2023-03-07T20:53:22.930Z,11.53
2023-03-07T20:55:51.464Z,11.52
2023-03-07T20:58:19.668Z,11.49
2023-03-07T21:00:54.496Z,11.38
2023-03-07T21:03:24.188Z,11.47
2023-03-07T21:09:09.205Z,11.42
2023-03-07T21:11:56.367Z,11.33
2023-03-07T21:14:31.031Z,11.24
2023-03-07T21:17:15.751Z,11.33
2023-03-07T21:19:57.129Z,11.39
2023-03-07T21:22:44.663Z,11.24
2023-03-07T21:25:32.637Z,11.22
2023-03-07T21:28:17.206Z,11.27
2023-03-07T21:31:25.810Z,11.28
2023-03-07T21:34:07.355Z,11.21
2023-03-07T21:36:59.350Z,11.16
2023-03-07T21:39:32.772Z,11.14
2023-03-07T21:42:08.982Z,11.11
2023-03-07T21:46:18.053Z,11.22
2023-03-07T21:49:40.308Z,10.96
2023-03-07T21:51:57.409Z,11.05
2023-03-07T21:54:34.782Z,11.14
2023-03-07T21:57:25.365Z,11.13
2023-03-07T21:59:53.643Z,11.10
2023-03-07T22:02:35.501Z,11.13
2023-03-07T22:05:11.763Z,11.10
2023-03-07T22:08:29.911Z,11.19
2023-03-07T22:10:35.862Z,11.14
2023-03-07T22:13:06.724Z,11.12
2023-03-07T22:15:41.343Z,11.18
2023-03-07T22:18:10.078Z,11.10
2023-03-07T22:20:40.836Z,11.18
2023-03-07T22:23:15.697Z,11.18
2023-03-07T22:25:44.912Z,11.09
2023-03-07T22:28:17.226Z,11.16
2023-03-07T22:30:57.382Z,10.91
2023-03-07T22:33:42.150Z,11.11
2023-03-07T22:36:17.856Z,11.02
2023-03-07T22:38:56.849Z,11.06
2023-03-07T22:41:26.147Z,11.07
2023-03-07T22:43:58.544Z,11.15
2023-03-07T22:46:26.637Z,11.03
2023-03-07T22:48:58.255Z,11.18
2023-03-07T22:51:30.068Z,11.13
2023-03-07T22:53:59.313Z,11.04
2023-03-07T22:56:31.276Z,11.11
2023-03-07T22:59:01.776Z,11.17
2023-03-07T23:01:38.453Z,11.05
2023-03-07T23:04:11.240Z,11.18
2023-03-07T23:06:57.366Z,11.14
2023-03-07T23:09:28.258Z,11.09
2023-03-07T23:12:11.064Z,11.14
2023-03-07T23:14:43.705Z,11.17
2023-03-07T23:17:31.398Z,11.08
2023-03-07T23:20:12.973Z,11.16
2023-03-07T23:22:51.941Z,11.16
2023-03-07T23:25:20.577Z,11.07
2023-03-07T23:27:58.804Z,11.19
2023-03-07T23:30:36.222Z,11.23
2023-03-07T23:33:06.934Z,11.23
2023-03-07T23:39:41.999Z,10.90
2023-03-07T23:42:29.794Z,11.09
2023-03-07T23:45:01.006Z,10.88
2023-03-07T23:47:33.671Z,11.03
2023-03-07T23:50:01.802Z,11.00
2023-03-07T23:52:30.466Z,11.01
2023-03-07T23:55:01.371Z,10.93
2023-03-07T23:57:31.006Z,10.96
2023-03-07T23:59:59.770Z,11.05
